sensor_id;sensor_type;location;lat;lon;timestamp;P1;durP1;ratioP1;P2;durP2;ratioP2
74753;SDS011;63271;53.340;-6.260;2023-07-08T06:01:18;31.92;;;5.90;;
74753;SDS011;63271;53.340;-6.260;2023-07-08T06:03:43;33.83;;;7.35;;
74753;SDS011;63271;53.340;-6.260;2023-07-08T06:06:08;28.67;;;6.57;;
74753;SDS011;63271;53.340;-6.260;2023-07-08T06:08:34;22.40;;;5.45;;
74753;SDS011;63271;53.340;-6.260;2023-07-08T06:11:04;24.40;;;5.95;;
74753;SDS011;63271;53.340;-6.260;2023-07-08T06:13:34;19.60;;;4.50;;
74753;SDS011;63271;53.340;-6.260;2023-07-08T06:16:02;20.58;;;4.45;;
74753;SDS011;63271;53.340;-6.260;2023-07-08T06:18:27;17.15;;;4.30;;
74753;SDS011;63271;53.340;-6.260;2023-07-08T06:20:55;14.05;;;3.50;;
74753;SDS011;63271;53.340;-6.260;2023-07-08T06:23:21;13.73;;;3.70;;
74753;SDS011;63271;53.340;-6.260;2023-07-08T06:25:50;17.23;;;3.90;;
74753;SDS011;63271;53.340;-6.260;2023-07-08T06:28:18;15.27;;;3.83;;
74753;SDS011;63271;53.340;-6.260;2023-07-08T06:30:44;16.35;;;3.95;;
74753;SDS011;63271;53.340;-6.260;2023-07-08T06:33:10;17.42;;;3.42;;
74753;SDS011;63271;53.340;-6.260;2023-07-08T06:35:36;12.65;;;3.10;;
74753;SDS011;63271;53.340;-6.260;2023-07-08T06:38:05;13.13;;;4.18;;
74753;SDS011;63271;53.340;-6.260;2023-07-08T06:40:31;15.93;;;3.72;;
74753;SDS011;63271;53.340;-6.260;2023-07-08T06:42:57;21.15;;;5.13;;
74753;SDS011;63271;53.340;-6.260;2023-07-08T06:45:25;19.75;;;4.80;;
74753;SDS011;63271;53.340;-6.260;2023-07-08T06:47:51;21.38;;;4.72;;
74753;SDS011;63271;53.340;-6.260;2023-07-08T06:50:16;29.25;;;4.82;;
74753;SDS011;63271;53.340;-6.260;2023-07-08T06:52:47;18.67;;;4.30;;
74753;SDS011;63271;53.340;-6.260;2023-07-08T06:55:13;22.40;;;4.15;;
74753;SDS011;63271;53.340;-6.260;2023-07-08T06:57:41;19.40;;;4.88;;
74753;SDS011;63271;53.340;-6.260;2023-07-08T07:00:07;15.73;;;3.17;;
74753;SDS011;63271;53.340;-6.260;2023-07-08T07:02:33;16.83;;;3.00;;
74753;SDS011;63271;53.340;-6.260;2023-07-08T07:05:02;19.33;;;3.35;;
74753;SDS011;63271;53.340;-6.260;2023-07-08T07:07:28;15.10;;;2.92;;
74753;SDS011;63271;53.340;-6.260;2023-07-08T07:09:58;17.80;;;3.13;;
74753;SDS011;63271;53.340;-6.260;2023-07-08T07:12:24;24.92;;;4.20;;
74753;SDS011;63271;53.340;-6.260;2023-07-08T07:14:52;28.75;;;3.70;;
74753;SDS011;63271;53.340;-6.260;2023-07-08T07:17:22;16.27;;;3.38;;
74753;SDS011;63271;53.340;-6.260;2023-07-08T07:19:51;17.40;;;3.22;;
74753;SDS011;63271;53.340;-6.260;2023-07-08T07:22:19;17.83;;;2.92;;
74753;SDS011;63271;53.340;-6.260;2023-07-08T07:24:44;20.05;;;2.92;;
74753;SDS011;63271;53.340;-6.260;2023-07-08T07:27:10;22.05;;;4.63;;
74753;SDS011;63271;53.340;-6.260;2023-07-08T07:29:40;18.95;;;3.15;;
74753;SDS011;63271;53.340;-6.260;2023-07-08T07:32:13;18.13;;;3.50;;
74753;SDS011;63271;53.340;-6.260;2023-07-08T07:34:39;18.48;;;3.28;;
74753;SDS011;63271;53.340;-6.260;2023-07-08T07:37:05;22.23;;;3.92;;
74753;SDS011;63271;53.340;-6.260;2023-07-08T07:39:32;20.80;;;3.60;;
74753;SDS011;63271;53.340;-6.260;2023-07-08T07:41:59;15.93;;;3.03;;
74753;SDS011;63271;53.340;-6.260;2023-07-08T07:44:25;20.50;;;3.75;;
74753;SDS011;63271;53.340;-6.260;2023-07-08T07:46:53;23.55;;;4.10;;
74753;SDS011;63271;53.340;-6.260;2023-07-08T07:49:20;21.77;;;4.10;;
74753;SDS011;63271;53.340;-6.260;2023-07-08T07:51:46;20.17;;;3.63;;
74753;SDS011;63271;53.340;-6.260;2023-07-08T07:54:17;22.05;;;3.95;;
74753;SDS011;63271;53.340;-6.260;2023-07-08T07:56:45;18.52;;;3.30;;
74753;SDS011;63271;53.340;-6.260;2023-07-08T07:59:10;22.55;;;3.38;;
74753;SDS011;63271;53.340;-6.260;2023-07-08T08:01:36;18.70;;;3.50;;
74753;SDS011;63271;53.340;-6.260;2023-07-08T08:04:02;14.98;;;2.72;;
74753;SDS011;63271;53.340;-6.260;2023-07-08T08:06:30;21.08;;;3.80;;
74753;SDS011;63271;53.340;-6.260;2023-07-08T08:09:00;12.68;;;2.40;;
74753;SDS011;63271;53.340;-6.260;2023-07-08T08:11:25;16.30;;;3.03;;
74753;SDS011;63271;53.340;-6.260;2023-07-08T08:13:52;14.13;;;2.40;;
74753;SDS011;63271;53.340;-6.260;2023-07-08T08:16:20;19.77;;;3.00;;
74753;SDS011;63271;53.340;-6.260;2023-07-08T08:18:46;11.63;;;2.67;;
74753;SDS011;63271;53.340;-6.260;2023-07-08T08:21:11;11.40;;;2.20;;
74753;SDS011;63271;53.340;-6.260;2023-07-08T08:23:42;12.70;;;2.40;;
74753;SDS011;63271;53.340;-6.260;2023-07-08T08:26:08;16.95;;;2.83;;
74753;SDS011;63271;53.340;-6.260;2023-07-08T08:28:33;11.80;;;2.30;;
74753;SDS011;63271;53.340;-6.260;2023-07-08T08:31:01;16.48;;;2.97;;
74753;SDS011;63271;53.340;-6.260;2023-07-08T08:33:29;12.70;;;2.25;;
74753;SDS011;63271;53.340;-6.260;2023-07-08T08:35:57;15.82;;;2.20;;
74753;SDS011;63271;53.340;-6.260;2023-07-08T08:38:25;11.55;;;2.17;;
74753;SDS011;63271;53.340;-6.260;2023-07-08T08:40:53;13.80;;;2.25;;
74753;SDS011;63271;53.340;-6.260;2023-07-08T08:43:19;10.77;;;2.25;;
74753;SDS011;63271;53.340;-6.260;2023-07-08T08:45:55;7.85;;;1.52;;
74753;SDS011;63271;53.340;-6.260;2023-07-08T08:48:30;13.65;;;2.35;;
74753;SDS011;63271;53.340;-6.260;2023-07-08T08:50:59;20.42;;;2.97;;
74753;SDS011;63271;53.340;-6.260;2023-07-08T08:53:30;13.23;;;1.98;;
74753;SDS011;63271;53.340;-6.260;2023-07-08T08:56:29;7.38;;;1.67;;
74753;SDS011;63271;53.340;-6.260;2023-07-08T08:58:57;19.25;;;2.22;;
74753;SDS011;63271;53.340;-6.260;2023-07-08T09:01:27;9.40;;;2.10;;
74753;SDS011;63271;53.340;-6.260;2023-07-08T09:04:00;12.95;;;2.00;;
74753;SDS011;63271;53.340;-6.260;2023-07-08T09:06:34;9.60;;;2.05;;
74753;SDS011;63271;53.340;-6.260;2023-07-08T09:09:09;8.88;;;1.70;;
74753;SDS011;63271;53.340;-6.260;2023-07-08T09:14:19;11.13;;;2.13;;
74753;SDS011;63271;53.340;-6.260;2023-07-08T09:19:22;13.82;;;2.13;;
74753;SDS011;63271;53.340;-6.260;2023-07-08T09:27:23;11.73;;;2.35;;
74753;SDS011;63271;53.340;-6.260;2023-07-08T09:29:53;14.65;;;2.25;;
74753;SDS011;63271;53.340;-6.260;2023-07-08T09:32:26;7.72;;;1.60;;
74753;SDS011;63271;53.340;-6.260;2023-07-08T09:34:54;14.52;;;2.15;;
74753;SDS011;63271;53.340;-6.260;2023-07-08T09:37:31;18.52;;;2.50;;
74753;SDS011;63271;53.340;-6.260;2023-07-08T09:39:59;8.25;;;1.92;;
74753;SDS011;63271;53.340;-6.260;2023-07-08T09:42:30;11.85;;;2.22;;
74753;SDS011;63271;53.340;-6.260;2023-07-08T09:45:08;8.85;;;1.75;;
74753;SDS011;63271;53.340;-6.260;2023-07-08T09:47:39;19.70;;;2.75;;
74753;SDS011;63271;53.340;-6.260;2023-07-08T09:52:54;10.60;;;1.80;;
74753;SDS011;63271;53.340;-6.260;2023-07-08T09:55:23;13.40;;;1.85;;
74753;SDS011;63271;53.340;-6.260;2023-07-08T09:57:50;10.82;;;1.83;;
74753;SDS011;63271;53.340;-6.260;2023-07-08T10:00:17;12.00;;;2.28;;
74753;SDS011;63271;53.340;-6.260;2023-07-08T10:02:57;8.25;;;1.90;;
74753;SDS011;63271;53.340;-6.260;2023-07-08T10:05:25;8.85;;;1.50;;
74753;SDS011;63271;53.340;-6.260;2023-07-08T10:07:56;6.75;;;1.85;;
74753;SDS011;63271;53.340;-6.260;2023-07-08T10:10:28;13.40;;;2.08;;
74753;SDS011;63271;53.340;-6.260;2023-07-08T10:13:00;12.23;;;2.65;;
74753;SDS011;63271;53.340;-6.260;2023-07-08T10:15:35;9.90;;;2.30;;
74753;SDS011;63271;53.340;-6.260;2023-07-08T10:18:09;7.38;;;1.77;;
74753;SDS011;63271;53.340;-6.260;2023-07-08T10:20:56;10.65;;;1.67;;
74753;SDS011;63271;53.340;-6.260;2023-07-08T10:26:20;7.40;;;1.63;;
74753;SDS011;63271;53.340;-6.260;2023-07-08T10:28:53;4.95;;;1.25;;
74753;SDS011;63271;53.340;-6.260;2023-07-08T10:32:23;8.07;;;1.52;;
74753;SDS011;63271;53.340;-6.260;2023-07-08T10:39:52;8.93;;;1.77;;
74753;SDS011;63271;53.340;-6.260;2023-07-08T10:42:43;11.68;;;2.38;;
74753;SDS011;63271;53.340;-6.260;2023-07-08T10:45:18;10.65;;;2.28;;
74753;SDS011;63271;53.340;-6.260;2023-07-08T10:50:34;14.75;;;2.33;;
74753;SDS011;63271;53.340;-6.260;2023-07-08T11:01:01;9.43;;;2.22;;
74753;SDS011;63271;53.340;-6.260;2023-07-08T11:06:41;8.95;;;2.13;;
74753;SDS011;63271;53.340;-6.260;2023-07-08T11:09:22;11.15;;;2.25;;
74753;SDS011;63271;53.340;-6.260;2023-07-08T11:22:02;12.88;;;2.30;;
74753;SDS011;63271;53.340;-6.260;2023-07-08T11:32:16;9.38;;;2.50;;
74753;SDS011;63271;53.340;-6.260;2023-07-08T11:34:44;17.52;;;2.90;;
74753;SDS011;63271;53.340;-6.260;2023-07-08T11:37:14;12.27;;;2.22;;
74753;SDS011;63271;53.340;-6.260;2023-07-08T11:39:44;8.60;;;2.33;;
74753;SDS011;63271;53.340;-6.260;2023-07-08T11:44:57;12.27;;;2.20;;
74753;SDS011;63271;53.340;-6.260;2023-07-08T11:49:51;7.35;;;1.95;;
74753;SDS011;63271;53.340;-6.260;2023-07-08T11:52:19;13.40;;;2.88;;
74753;SDS011;63271;53.340;-6.260;2023-07-08T11:54:47;9.05;;;2.33;;
74753;SDS011;63271;53.340;-6.260;2023-07-08T11:57:24;12.43;;;2.60;;
74753;SDS011;63271;53.340;-6.260;2023-07-08T12:02:49;12.77;;;2.80;;
74753;SDS011;63271;53.340;-6.260;2023-07-08T12:05:16;10.02;;;2.58;;
74753;SDS011;63271;53.340;-6.260;2023-07-08T12:07:46;14.18;;;3.00;;
74753;SDS011;63271;53.340;-6.260;2023-07-08T12:10:17;10.45;;;2.90;;
74753;SDS011;63271;53.340;-6.260;2023-07-08T12:12:48;10.30;;;2.60;;
74753;SDS011;63271;53.340;-6.260;2023-07-08T12:15:29;7.53;;;2.42;;
74753;SDS011;63271;53.340;-6.260;2023-07-08T12:17:59;8.18;;;2.30;;
74753;SDS011;63271;53.340;-6.260;2023-07-08T12:20:36;9.38;;;2.45;;
74753;SDS011;63271;53.340;-6.260;2023-07-08T12:23:17;11.60;;;2.67;;
74753;SDS011;63271;53.340;-6.260;2023-07-08T12:25:45;8.73;;;2.22;;
74753;SDS011;63271;53.340;-6.260;2023-07-08T12:28:14;6.70;;;1.80;;
74753;SDS011;63271;53.340;-6.260;2023-07-08T12:30:43;6.13;;;1.98;;
74753;SDS011;63271;53.340;-6.260;2023-07-08T12:33:14;11.40;;;2.60;;
74753;SDS011;63271;53.340;-6.260;2023-07-08T12:35:50;13.75;;;2.65;;
74753;SDS011;63271;53.340;-6.260;2023-07-08T12:38:49;6.40;;;2.20;;
74753;SDS011;63271;53.340;-6.260;2023-07-08T12:41:12;7.25;;;2.22;;
74753;SDS011;63271;53.340;-6.260;2023-07-08T12:43:44;11.10;;;1.90;;
74753;SDS011;63271;53.340;-6.260;2023-07-08T12:46:12;8.18;;;1.88;;
74753;SDS011;63271;53.340;-6.260;2023-07-08T12:48:42;10.48;;;2.80;;
74753;SDS011;63271;53.340;-6.260;2023-07-08T12:51:17;7.28;;;1.80;;
74753;SDS011;63271;53.340;-6.260;2023-07-08T12:53:46;8.55;;;2.08;;
74753;SDS011;63271;53.340;-6.260;2023-07-08T12:56:11;6.18;;;1.70;;
74753;SDS011;63271;53.340;-6.260;2023-07-08T12:58:39;7.43;;;2.03;;
74753;SDS011;63271;53.340;-6.260;2023-07-08T13:01:06;5.82;;;1.73;;
74753;SDS011;63271;53.340;-6.260;2023-07-08T13:03:40;10.30;;;2.28;;
74753;SDS011;63271;53.340;-6.260;2023-07-08T13:06:09;15.25;;;2.47;;
74753;SDS011;63271;53.340;-6.260;2023-07-08T13:08:36;8.65;;;2.00;;
74753;SDS011;63271;53.340;-6.260;2023-07-08T13:11:03;5.97;;;1.70;;
74753;SDS011;63271;53.340;-6.260;2023-07-08T13:13:40;9.10;;;1.73;;
74753;SDS011;63271;53.340;-6.260;2023-07-08T13:16:14;9.13;;;1.80;;
74753;SDS011;63271;53.340;-6.260;2023-07-08T13:18:40;11.65;;;2.17;;
74753;SDS011;63271;53.340;-6.260;2023-07-08T13:21:09;8.82;;;1.90;;
74753;SDS011;63271;53.340;-6.260;2023-07-08T13:23:37;7.85;;;1.90;;
74753;SDS011;63271;53.340;-6.260;2023-07-08T13:26:16;9.68;;;2.30;;
74753;SDS011;63271;53.340;-6.260;2023-07-08T13:28:48;7.80;;;2.03;;
74753;SDS011;63271;53.340;-6.260;2023-07-08T13:31:17;12.68;;;1.90;;
74753;SDS011;63271;53.340;-6.260;2023-07-08T13:33:51;7.28;;;1.90;;
74753;SDS011;63271;53.340;-6.260;2023-07-08T13:36:18;7.22;;;2.05;;
74753;SDS011;63271;53.340;-6.260;2023-07-08T13:38:47;7.85;;;1.67;;
74753;SDS011;63271;53.340;-6.260;2023-07-08T13:41:17;5.13;;;1.60;;
74753;SDS011;63271;53.340;-6.260;2023-07-08T13:43:46;8.77;;;1.92;;
74753;SDS011;63271;53.340;-6.260;2023-07-08T13:46:58;5.82;;;2.08;;
74753;SDS011;63271;53.340;-6.260;2023-07-08T13:51:39;11.43;;;2.22;;
74753;SDS011;63271;53.340;-6.260;2023-07-08T13:54:12;11.07;;;1.80;;
74753;SDS011;63271;53.340;-6.260;2023-07-08T13:56:48;9.32;;;2.15;;
74753;SDS011;63271;53.340;-6.260;2023-07-08T13:59:21;11.30;;;2.20;;
74753;SDS011;63271;53.340;-6.260;2023-07-08T14:01:48;5.80;;;1.73;;
74753;SDS011;63271;53.340;-6.260;2023-07-08T14:04:18;6.15;;;1.92;;
74753;SDS011;63271;53.340;-6.260;2023-07-08T14:06:49;6.30;;;1.40;;
74753;SDS011;63271;53.340;-6.260;2023-07-08T14:09:18;6.35;;;1.90;;
74753;SDS011;63271;53.340;-6.260;2023-07-08T14:11:48;9.57;;;1.90;;
74753;SDS011;63271;53.340;-6.260;2023-07-08T14:14:17;6.82;;;1.77;;
74753;SDS011;63271;53.340;-6.260;2023-07-08T14:16:46;10.60;;;1.70;;
74753;SDS011;63271;53.340;-6.260;2023-07-08T14:19:29;9.65;;;2.03;;
74753;SDS011;63271;53.340;-6.260;2023-07-08T14:21:57;9.73;;;2.42;;
74753;SDS011;63271;53.340;-6.260;2023-07-08T14:24:26;8.75;;;1.83;;
74753;SDS011;63271;53.340;-6.260;2023-07-08T14:26:52;8.68;;;2.17;;
74753;SDS011;63271;53.340;-6.260;2023-07-08T14:29:20;9.45;;;2.33;;
74753;SDS011;63271;53.340;-6.260;2023-07-08T14:31:45;10.48;;;1.95;;
74753;SDS011;63271;53.340;-6.260;2023-07-08T14:34:31;13.35;;;2.35;;
74753;SDS011;63271;53.340;-6.260;2023-07-08T14:36:58;8.30;;;2.40;;
74753;SDS011;63271;53.340;-6.260;2023-07-08T14:39:24;7.07;;;2.00;;
74753;SDS011;63271;53.340;-6.260;2023-07-08T14:41:51;11.18;;;2.30;;
74753;SDS011;63271;53.340;-6.260;2023-07-08T14:44:21;9.38;;;2.22;;
74753;SDS011;63271;53.340;-6.260;2023-07-08T14:46:51;11.90;;;2.13;;
74753;SDS011;63271;53.340;-6.260;2023-07-08T14:49:19;10.00;;;2.10;;
74753;SDS011;63271;53.340;-6.260;2023-07-08T14:51:48;12.75;;;2.65;;
74753;SDS011;63271;53.340;-6.260;2023-07-08T14:54:14;8.95;;;1.90;;
74753;SDS011;63271;53.340;-6.260;2023-07-08T14:56:42;10.65;;;2.25;;
74753;SDS011;63271;53.340;-6.260;2023-07-08T14:59:12;11.27;;;2.63;;
74753;SDS011;63271;53.340;-6.260;2023-07-08T15:01:40;13.63;;;2.35;;
74753;SDS011;63271;53.340;-6.260;2023-07-08T15:04:10;10.98;;;2.63;;
74753;SDS011;63271;53.340;-6.260;2023-07-08T15:06:39;9.00;;;2.28;;
74753;SDS011;63271;53.340;-6.260;2023-07-08T15:09:05;11.70;;;2.05;;
74753;SDS011;63271;53.340;-6.260;2023-07-08T15:11:31;8.95;;;2.28;;
74753;SDS011;63271;53.340;-6.260;2023-07-08T15:13:57;11.07;;;2.63;;
74753;SDS011;63271;53.340;-6.260;2023-07-08T15:16:25;10.35;;;2.17;;
74753;SDS011;63271;53.340;-6.260;2023-07-08T15:18:53;7.70;;;2.17;;
74753;SDS011;63271;53.340;-6.260;2023-07-08T15:21:19;10.10;;;2.30;;
74753;SDS011;63271;53.340;-6.260;2023-07-08T15:23:46;8.63;;;2.08;;
74753;SDS011;63271;53.340;-6.260;2023-07-08T15:26:15;11.27;;;2.05;;
74753;SDS011;63271;53.340;-6.260;2023-07-08T15:28:41;9.10;;;2.50;;
74753;SDS011;63271;53.340;-6.260;2023-07-08T15:31:13;8.98;;;2.53;;
74753;SDS011;63271;53.340;-6.260;2023-07-08T15:33:40;11.05;;;2.22;;
74753;SDS011;63271;53.340;-6.260;2023-07-08T15:36:07;12.07;;;2.47;;
74753;SDS011;63271;53.340;-6.260;2023-07-08T15:38:34;10.55;;;2.35;;
74753;SDS011;63271;53.340;-6.260;2023-07-08T15:40:59;8.00;;;2.03;;
74753;SDS011;63271;53.340;-6.260;2023-07-08T15:46:00;9.95;;;2.28;;
74753;SDS011;63271;53.340;-6.260;2023-07-08T15:48:27;14.68;;;2.40;;
74753;SDS011;63271;53.340;-6.260;2023-07-08T15:50:52;18.95;;;2.58;;
74753;SDS011;63271;53.340;-6.260;2023-07-08T15:53:23;12.15;;;2.65;;
74753;SDS011;63271;53.340;-6.260;2023-07-08T15:55:50;10.55;;;1.88;;
74753;SDS011;63271;53.340;-6.260;2023-07-08T15:58:28;12.60;;;2.70;;
74753;SDS011;63271;53.340;-6.260;2023-07-08T16:00:59;10.68;;;2.90;;
74753;SDS011;63271;53.340;-6.260;2023-07-08T16:03:26;10.90;;;2.05;;
74753;SDS011;63271;53.340;-6.260;2023-07-08T16:05:53;11.55;;;2.13;;
74753;SDS011;63271;53.340;-6.260;2023-07-08T16:08:19;11.27;;;2.03;;
74753;SDS011;63271;53.340;-6.260;2023-07-08T16:10:48;9.80;;;2.35;;
74753;SDS011;63271;53.340;-6.260;2023-07-08T16:13:27;8.27;;;1.90;;
74753;SDS011;63271;53.340;-6.260;2023-07-08T16:15:54;8.50;;;2.05;;
74753;SDS011;63271;53.340;-6.260;2023-07-08T16:18:22;12.57;;;2.38;;
74753;SDS011;63271;53.340;-6.260;2023-07-08T16:20:48;10.25;;;2.40;;
74753;SDS011;63271;53.340;-6.260;2023-07-08T16:23:14;9.73;;;2.05;;
74753;SDS011;63271;53.340;-6.260;2023-07-08T16:25:44;11.15;;;3.70;;
74753;SDS011;63271;53.340;-6.260;2023-07-08T16:31:11;11.40;;;2.38;;
74753;SDS011;63271;53.340;-6.260;2023-07-08T16:33:38;13.60;;;2.03;;
74753;SDS011;63271;53.340;-6.260;2023-07-08T16:36:04;11.85;;;2.58;;
74753;SDS011;63271;53.340;-6.260;2023-07-08T16:38:32;5.30;;;1.58;;
74753;SDS011;63271;53.340;-6.260;2023-07-08T16:40:57;8.98;;;1.92;;
74753;SDS011;63271;53.340;-6.260;2023-07-08T16:43:28;10.10;;;2.25;;
74753;SDS011;63271;53.340;-6.260;2023-07-08T16:45:56;8.48;;;1.70;;
74753;SDS011;63271;53.340;-6.260;2023-07-08T16:48:25;8.50;;;1.77;;
74753;SDS011;63271;53.340;-6.260;2023-07-08T16:50:55;10.18;;;2.47;;
74753;SDS011;63271;53.340;-6.260;2023-07-08T16:53:21;14.98;;;3.22;;
74753;SDS011;63271;53.340;-6.260;2023-07-08T16:55:47;7.68;;;1.80;;
74753;SDS011;63271;53.340;-6.260;2023-07-08T16:58:13;9.32;;;1.85;;
74753;SDS011;63271;53.340;-6.260;2023-07-08T17:00:41;12.40;;;2.53;;
74753;SDS011;63271;53.340;-6.260;2023-07-08T17:03:08;10.18;;;2.30;;
74753;SDS011;63271;53.340;-6.260;2023-07-08T17:05:35;8.48;;;2.70;;
74753;SDS011;63271;53.340;-6.260;2023-07-08T17:08:08;5.70;;;2.15;;
74753;SDS011;63271;53.340;-6.260;2023-07-08T17:10:36;12.57;;;2.38;;
74753;SDS011;63271;53.340;-6.260;2023-07-08T17:13:06;9.32;;;2.15;;
74753;SDS011;63271;53.340;-6.260;2023-07-08T17:15:35;7.35;;;1.95;;
74753;SDS011;63271;53.340;-6.260;2023-07-08T17:18:01;7.80;;;2.13;;
74753;SDS011;63271;53.340;-6.260;2023-07-08T17:20:31;9.40;;;1.70;;
74753;SDS011;63271;53.340;-6.260;2023-07-08T17:22:59;9.63;;;1.73;;
74753;SDS011;63271;53.340;-6.260;2023-07-08T17:25:25;13.57;;;3.30;;
74753;SDS011;63271;53.340;-6.260;2023-07-08T17:27:52;11.20;;;1.90;;
74753;SDS011;63271;53.340;-6.260;2023-07-08T17:30:22;8.25;;;1.92;;
74753;SDS011;63271;53.340;-6.260;2023-07-08T17:32:49;10.70;;;2.22;;
74753;SDS011;63271;53.340;-6.260;2023-07-08T17:35:22;8.25;;;2.13;;
74753;SDS011;63271;53.340;-6.260;2023-07-08T17:37:50;11.45;;;2.10;;
74753;SDS011;63271;53.340;-6.260;2023-07-08T17:40:20;15.60;;;3.05;;
74753;SDS011;63271;53.340;-6.260;2023-07-08T17:42:47;9.55;;;2.00;;
74753;SDS011;63271;53.340;-6.260;2023-07-08T17:45:16;8.35;;;1.88;;
74753;SDS011;63271;53.340;-6.260;2023-07-08T17:47:45;9.48;;;2.25;;
74753;SDS011;63271;53.340;-6.260;2023-07-08T17:50:13;7.95;;;2.00;;
74753;SDS011;63271;53.340;-6.260;2023-07-08T17:52:38;5.78;;;2.00;;
74753;SDS011;63271;53.340;-6.260;2023-07-08T17:55:04;5.65;;;1.67;;
74753;SDS011;63271;53.340;-6.260;2023-07-08T17:57:29;9.32;;;1.80;;
74753;SDS011;63271;53.340;-6.260;2023-07-08T17:59:57;8.57;;;1.92;;
74753;SDS011;63271;53.340;-6.260;2023-07-08T18:02:23;12.32;;;2.15;;
74753;SDS011;63271;53.340;-6.260;2023-07-08T18:04:51;6.88;;;1.67;;
74753;SDS011;63271;53.340;-6.260;2023-07-08T18:07:18;9.27;;;2.22;;
74753;SDS011;63271;53.340;-6.260;2023-07-08T18:09:50;11.80;;;2.85;;
74753;SDS011;63271;53.340;-6.260;2023-07-08T18:12:18;13.43;;;4.95;;
74753;SDS011;63271;53.340;-6.260;2023-07-08T18:14:44;12.52;;;2.65;;
74753;SDS011;63271;53.340;-6.260;2023-07-08T18:17:10;11.15;;;2.60;;
74753;SDS011;63271;53.340;-6.260;2023-07-08T18:19:36;9.20;;;2.15;;
74753;SDS011;63271;53.340;-6.260;2023-07-08T18:22:02;9.95;;;2.33;;
74753;SDS011;63271;53.340;-6.260;2023-07-08T18:24:30;11.70;;;2.50;;
74753;SDS011;63271;53.340;-6.260;2023-07-08T18:26:56;6.38;;;1.80;;
74753;SDS011;63271;53.340;-6.260;2023-07-08T18:29:24;7.95;;;1.80;;
74753;SDS011;63271;53.340;-6.260;2023-07-08T18:31:49;8.25;;;1.65;;
74753;SDS011;63271;53.340;-6.260;2023-07-08T18:34:17;7.45;;;2.53;;
74753;SDS011;63271;53.340;-6.260;2023-07-08T18:36:48;10.60;;;2.33;;
74753;SDS011;63271;53.340;-6.260;2023-07-08T18:39:17;12.70;;;3.42;;
74753;SDS011;63271;53.340;-6.260;2023-07-08T18:41:45;17.42;;;5.20;;
74753;SDS011;63271;53.340;-6.260;2023-07-08T18:47:09;12.50;;;2.38;;
74753;SDS011;63271;53.340;-6.260;2023-07-08T18:49:39;12.18;;;2.72;;
74753;SDS011;63271;53.340;-6.260;2023-07-08T18:52:07;19.25;;;2.88;;
74753;SDS011;63271;53.340;-6.260;2023-07-08T18:54:33;15.80;;;2.60;;
74753;SDS011;63271;53.340;-6.260;2023-07-08T18:56:58;13.23;;;2.33;;
74753;SDS011;63271;53.340;-6.260;2023-07-08T18:59:24;12.40;;;2.22;;
